Latest Weather Observations for Grove

IDT60801

Issued at 10:05 pm EST Thursday 24 July 2014 (issued every 30 minutes, with the page automatically refreshed every 10 minutes)

About weather observations | Map of weather stations | Latest weather observations for TAS | Other Formats
Station Details ID: 094220 Name: GROVE (RESEARCH STATION) Lat: -42.99 Lon: 147.07 Height: 65.0 m
Data from the previous 72 hours. | See also: Recent months at Grove
Date/Time
EST
Temp
°C
App
Temp
°C
Dew
Point
Rel
Hum
%
Delta-T
°C
Wind Press
QNH
hPa
Press
MSL
hPa
Rain
since 9 am
mm
Dir
 
Spd
km/h
Gust
km/h
Spd
kts
Gust
kts
24/10:00pm 2.1 -0.7 2.1 100 0.0 ENE 6 11 3 6 - - 0.0
24/09:30pm 2.4 0.0 2.4 100 0.0 NNE 4 9 2 5 - - 0.0
24/09:00pm 3.1 1.6 2.9 99 0.1 CALM 0 0 0 0 - - 0.0
24/08:30pm 3.5 1.3 3.5 100 0.0 NE 4 7 2 4 - - 0.0
24/08:00pm 4.1 2.4 3.9 99 0.1 ENE 2 7 1 4 - - 0.0
24/07:30pm 4.6 2.2 4.1 97 0.2 NE 6 7 3 4 - - 0.0
24/07:00pm 4.5 3.2 4.3 99 0.1 CALM 0 0 0 0 - - 0.0
24/06:30pm 4.8 2.8 4.6 99 0.1 NNE 4 9 2 5 - - 0.0
24/06:00pm 5.2 4.1 5.0 99 0.1 CALM 0 0 0 0 - - 0.0
24/05:30pm 5.7 4.6 5.2 97 0.2 CALM 0 6 0 3 - - 0.0
24/05:00pm 6.5 4.1 5.4 93 0.5 ENE 7 9 4 5 - - 0.0
24/04:30pm 7.2 5.1 5.6 89 0.7 NNE 6 6 3 3 - - 0.0
24/04:00pm 7.9 6.8 5.2 83 1.2 CALM 0 0 0 0 - - 0.0
24/03:30pm 8.1 7.0 5.2 82 1.3 CALM 0 0 0 0 - - 0.0
24/03:00pm 7.6 6.6 5.6 87 0.9 CALM 0 0 0 0 - - 0.0
24/02:30pm 7.4 5.6 5.4 87 0.9 W 4 6 2 3 - - 0.0
24/02:00pm 7.1 5.7 5.3 88 0.8 WSW 2 6 1 3 - - 0.0
24/01:30pm 6.7 4.5 5.3 91 0.6 WSW 6 7 3 4 - - 0.0
24/01:00pm 7.0 5.2 5.4 89 0.7 SW 4 7 2 4 - - 0.0
24/12:30pm 5.3 3.8 4.8 97 0.2 SSW 2 6 1 3 - - 0.0
24/12:00pm 4.0 2.7 4.0 100 0.0 CALM 0 0 0 0 - - 0.0
24/11:30am 3.8 2.4 3.8 100 0.0 CALM 0 0 0 0 - - 0.0
24/11:00am 3.0 1.1 2.8 99 0.1 NNE 2 6 1 3 - - 0.0
24/10:30am 2.3 0.3 2.3 100 0.0 NW 2 6 1 3 - - 0.0
24/10:00am 1.8 0.0 1.5 98 0.1 CALM 0 0 0 0 - - 0.0
24/09:30am 1.5 -0.6 1.5 100 0.0 N 2 6 1 3 - - 0.0
24/09:00am 1.1 -0.7 1.1 100 0.0 CALM 0 0 0 0 - - 0.2
24/08:30am 1.0 -0.8 1.0 100 0.0 CALM 0 0 0 0 - - 0.2
24/08:00am 0.9 -1.3 0.9 100 0.0 NNE 2 6 1 3 - - 0.2
24/07:30am 0.9 -0.9 0.9 100 0.0 CALM 0 7 0 4 - - 0.2
24/07:00am 0.9 -0.9 0.9 100 0.0 CALM 0 0 0 0 - - 0.2
24/06:30am 0.8 -2.2 0.8 100 0.0 ENE 6 6 3 3 - - 0.2
24/06:00am 0.8 -1.1 0.8 100 0.0 NNE 0 0 0 0 - - 0.2
24/05:30am 0.7 -1.2 0.7 100 0.0 CALM 0 0 0 0 - - 0.2
24/05:00am 0.7 -1.9 0.7 100 0.0 NNE 4 6 2 3 - - 0.2
24/04:30am 0.6 -2.1 0.6 100 0.0 NE 4 6 2 3 - - 0.0
24/04:00am 0.3 - - - - NE 7 9 4 5 - - 0.0
24/03:30am 0.1 - - - - NNE 2 6 1 3 - - 0.0
24/03:00am -0.1 - - - - CALM 0 0 0 0 - - 0.0
24/02:30am -0.2 - - - - CALM 0 0 0 0 - - 0.0
24/02:00am -0.2 - - - - CALM 0 0 0 0 - - 0.0
24/01:30am -0.6 - - - - CALM 0 0 0 0 - - 0.0
24/01:00am -0.1 - - - - CALM 0 0 0 0 - - 0.0
24/12:30am 0.4 -1.5 0.4 100 0.0 CALM 0 0 0 0 - - 0.0
24/12:00am 0.4 -1.5 0.4 100 0.0 SSW 0 0 0 0 - - 0.0
 
Date/Time
EST
Temp
°C
App
Temp
°C
Dew
Point
Rel
Hum
%
Delta-T
°C
Wind Press
QNH
hPa
Press
MSL
hPa
Rain
since 9 am
mm
Dir
 
Spd
km/h
Gust
km/h
Spd
kts
Gust
kts
23/11:30pm 0.4 - - - - SSW 6 7 3 4 - - 0.0
23/11:00pm 0.7 -2.4 0.4 98 0.1 NNE 6 7 3 4 - - 0.0
23/10:30pm 1.0 -2.2 1.0 100 0.0 NE 7 9 4 5 - - 0.0
23/10:00pm 1.4 -0.4 1.1 98 0.1 CALM 0 0 0 0 - - 0.0
23/09:30pm 1.6 -0.1 1.6 100 0.0 CALM 0 0 0 0 - - 0.0
23/09:00pm 2.2 -0.2 2.2 100 0.0 NNE 4 6 2 3 - - 0.0
23/08:30pm 2.6 -0.2 2.3 98 0.1 NNE 6 6 3 3 - - 0.0
23/08:00pm 3.3 0.7 3.1 99 0.1 NNE 6 7 3 4 - - 0.0
23/07:30pm 3.6 0.8 3.4 99 0.1 N 7 9 4 5 - - 0.0
23/07:00pm 4.6 1.9 3.9 95 0.3 E 7 9 4 5 - - 0.0
23/06:30pm 5.4 3.5 4.9 97 0.2 NNE 4 7 2 4 - - 0.0
23/06:00pm 6.7 5.7 5.8 94 0.4 CALM 0 0 0 0 - - 0.0
23/05:30pm 7.7 5.6 5.7 87 0.9 NNE 6 6 3 3 - - 0.0
23/05:00pm 9.5 7.7 7.0 84 1.2 N 6 9 3 5 - - 0.0
23/04:30pm 10.7 8.7 7.1 78 1.7 WNW 7 11 4 6 - - 0.0
23/04:00pm 12.8 12.0 6.3 64 3.1 CALM 0 0 0 0 - - 0.0
23/03:30pm 11.6 9.6 7.0 73 2.2 WSW 7 11 4 6 - - 0.0
23/03:00pm 12.7 10.0 5.7 62 3.3 W 9 9 5 5 - - 0.0
23/02:30pm 12.5 11.1 5.4 62 3.3 W 2 7 1 4 - - 0.0
23/02:00pm 12.2 11.4 6.3 67 2.8 CALM 0 0 0 0 - - 0.0
23/01:30pm 9.7 9.1 7.4 85 1.1 CALM 0 0 0 0 - - 0.0
23/01:00pm 9.4 7.4 6.4 81 1.4 WNW 6 7 3 4 - - 0.0
23/12:30pm 11.4 10.6 6.5 72 2.3 CALM 0 6 0 3 - - 0.0
23/12:00pm 10.8 10.1 6.8 76 1.9 CALM 0 0 0 0 - - 0.0
23/11:30am 9.2 8.4 6.4 83 1.3 CALM 0 0 0 0 - - 0.0
23/11:00am 8.2 7.3 6.2 87 0.9 CALM 0 0 0 0 - - 0.0
23/10:30am 6.4 5.5 6.0 97 0.2 CALM 0 0 0 0 - - 0.0
23/10:00am 5.6 4.2 5.6 100 0.0 WSW 2 6 1 3 - - 0.0
23/09:30am 5.2 3.3 5.0 99 0.1 SW 4 7 2 4 - - 0.0
23/09:00am 4.8 3.6 4.8 100 0.0 CALM 0 0 0 0 - - 0.0
23/08:30am 4.6 3.4 4.6 100 0.0 CALM 0 0 0 0 - - 0.0
23/08:00am 3.7 2.3 3.7 100 0.0 CALM 0 6 0 3 - - 0.0
23/07:30am 3.7 2.3 3.5 99 0.1 CALM 0 0 0 0 - - 0.0
23/07:00am 3.8 2.4 3.8 100 0.0 CALM 0 0 0 0 - - 0.0
23/06:30am 4.1 2.0 3.9 99 0.1 NE 4 6 2 3 - - 0.0
23/06:00am 4.4 3.1 4.2 99 0.1 CALM 0 0 0 0 - - 0.0
23/05:30am 4.3 3.0 4.3 100 0.0 CALM 0 0 0 0 - - 0.0
23/05:00am 4.4 3.1 4.2 99 0.1 CALM 0 0 0 0 - - 0.0
23/04:30am 4.4 3.1 4.2 99 0.1 CALM 0 0 0 0 - - 0.0
23/04:00am 4.3 3.0 4.1 99 0.1 CALM 0 0 0 0 - - 0.0
23/03:30am 4.5 3.2 4.3 99 0.1 CALM 0 0 0 0 - - 0.0
23/03:00am 4.5 2.9 4.3 99 0.1 WSW 2 7 1 4 - - 0.0
23/02:30am 4.5 3.2 4.3 99 0.1 CALM 0 4 0 2 - - 0.0
23/02:00am 4.6 2.2 4.4 99 0.1 NE 6 7 3 4 - - 0.0
23/01:30am 4.5 3.2 4.3 99 0.1 CALM 0 0 0 0 - - 0.0
23/01:00am 4.4 3.1 4.2 99 0.1 CALM 0 0 0 0 - - 0.0
23/12:30am 4.2 1.6 4.2 100 0.0 N 7 7 4 4 - - 0.0
23/12:00am 4.1 2.8 3.9 99 0.1 CALM 0 2 0 1 - - 0.0
 
Date/Time
EST
Temp
°C
App
Temp
°C
Dew
Point
Rel
Hum
%
Delta-T
°C
Wind Press
QNH
hPa
Press
MSL
hPa
Rain
since 9 am
mm
Dir
 
Spd
km/h
Gust
km/h
Spd
kts
Gust
kts
22/11:30pm 3.9 1.4 3.9 100 0.0 NNE 6 7 3 4 - - 0.0
22/11:00pm 3.7 2.3 3.7 100 0.0 CALM 0 2 0 1 - - 0.0
22/10:30pm 3.8 2.4 3.8 100 0.0 CALM 0 0 0 0 - - 0.0
22/10:00pm 4.1 2.4 3.9 99 0.1 NE 2 6 1 3 - - 0.0
22/09:30pm 4.3 1.8 3.8 97 0.2 E 6 9 3 5 - - 0.0
22/09:00pm 3.7 1.9 3.5 99 0.1 NNE 2 0 1 0 - - 0.0
22/08:30pm 3.7 1.0 3.5 99 0.1 ENE 7 9 4 5 - - 0.0
22/08:00pm 3.6 1.4 3.6 100 0.0 N 4 9 2 5 - - 0.0
22/07:30pm 4.1 1.4 3.9 99 0.1 N 7 9 4 5 - - 0.0
22/07:00pm 5.2 2.9 5.0 99 0.1 NE 6 7 3 4 - - 0.0
22/06:30pm 6.1 5.1 5.4 95 0.3 CALM 0 0 0 0 - - 0.0
22/06:00pm 7.3 6.4 6.0 91 0.6 CALM 0 0 0 0 - - 0.0
22/05:30pm 8.1 7.4 6.8 91 0.6 CALM 0 0 0 0 - - 0.0
22/05:00pm 8.9 8.2 6.8 87 1.0 CALM 0 0 0 0 - - 0.0
22/04:30pm 9.6 8.7 6.1 79 1.6 CALM 0 0 0 0 - - 0.0
22/04:00pm 9.6 8.6 5.7 76 1.8 CALM 0 0 0 0 - - 0.0
22/03:30pm 9.6 7.9 5.9 78 1.7 WNW 4 6 2 3 - - 0.0
22/03:00pm 9.1 6.8 5.8 80 1.5 W 7 7 4 4 - - 0.0
22/02:30pm 9.2 6.9 4.7 73 2.0 NNW 6 7 3 4 - - 0.0
22/02:00pm 10.5 8.1 4.5 66 2.7 NNE 6 7 3 4 - - 0.0
22/01:30pm 9.1 8.0 4.9 75 1.9 CALM 0 0 0 0 - - 0.0
22/01:00pm 8.2 6.8 5.3 82 1.3 SW 2 6 1 3 - - 0.0
22/12:30pm 6.6 4.6 4.5 86 0.9 WSW 4 7 2 4 - - 0.0
22/12:00pm 5.4 3.4 4.5 94 0.4 NW 4 6 2 3 - - 0.0
22/11:30am 4.0 2.6 3.3 95 0.3 CALM 0 0 0 0 - - 0.0
22/11:00am 3.0 0.4 3.0 100 0.0 NE 6 9 3 5 - - 0.0
22/10:30am 1.7 -1.2 1.7 100 0.0 NE 6 7 3 4 - - 0.0
22/10:00am 1.8 -1.0 1.8 100 0.0 ENE 6 7 3 4 - - 0.0
22/09:30am 1.2 -0.6 1.2 100 0.0 CALM 0 6 0 3 - - 0.0
22/09:00am 0.6 -2.6 0.6 100 0.0 NNE 7 9 4 5 - - 0.2
22/08:30am 0.9 -2.7 0.9 100 0.0 NE 9 11 5 6 - - 0.2
22/08:00am 0.8 -1.8 0.8 100 0.0 NE 4 6 2 3 - - 0.2
22/07:30am 0.9 -1.7 0.9 100 0.0 NE 4 7 2 4 - - 0.2
22/07:00am 0.9 -2.3 0.9 100 0.0 NNE 7 9 4 5 - - 0.2
22/06:30am 1.1 -2.0 1.1 100 0.0 NE 7 9 4 5 - - 0.2
22/06:00am 1.4 -0.4 1.4 100 0.0 CALM 0 0 0 0 - - 0.2
22/05:30am 1.3 -0.5 1.3 100 0.0 CALM 0 0 0 0 - - 0.2
22/05:00am 1.4 -1.7 1.4 100 0.0 NE 7 11 4 6 - - 0.2
22/04:30am 1.4 -1.7 1.4 100 0.0 NNE 7 9 4 5 - - 0.2
22/04:00am 1.3 -1.8 1.3 100 0.0 NNE 7 9 4 5 - - 0.2
22/03:30am 1.3 -1.8 1.3 100 0.0 NE 7 9 4 5 - - 0.0
22/03:00am 1.7 0.0 1.7 100 0.0 CALM 0 0 0 0 - - 0.0
22/02:30am 1.6 -1.3 1.6 100 0.0 NNE 6 7 3 4 - - 0.0
22/02:00am 1.6 -1.5 1.6 100 0.0 NE 7 9 4 5 - - 0.0
22/01:30am 1.3 -1.6 1.3 100 0.0 NE 6 7 3 4 - - 0.0
22/01:00am 0.5 -3.1 0.5 100 0.0 NE 9 9 5 5 - - 0.0
22/12:30am 0.1 - - - - CALM 0 0 0 0 - - 0.0
22/12:00am -0.9 - - - - CALM 0 0 0 0 - - 0.0
 
Date/Time
EST
Temp
°C
App
Temp
°C
Dew
Point
Rel
Hum
%
Delta-T
°C
Wind Press
QNH
hPa
Press
MSL
hPa
Rain
since 9 am
mm
Dir
 
Spd
km/h
Gust
km/h
Spd
kts
Gust
kts
21/11:30pm -0.5 - - - - CALM 0 0 0 0 - - 0.0
21/11:00pm -0.2 - - - - NNE 6 7 3 4 - - 0.0
21/10:30pm 0.0 - - - - NNE 6 7 3 4 - - 0.0

Other Formats:

Comma delimited format used in spreadsheet applications
http://www.bom.gov.au/fwo/IDT60801/IDT60801.95977.axf

JavaScript Object Notation format (JSON) in row-major order
http://www.bom.gov.au/fwo/IDT60801/IDT60801.95977.json